sensor_id;sensor_type;location;lat;lon;timestamp;temperature;humidity
16283;DHT22;8249;48.708;9.030;2022-08-01T00:00:31;18.20;99.90
16283;DHT22;8249;48.708;9.030;2022-08-01T00:02:58;18.20;99.90
16283;DHT22;8249;48.708;9.030;2022-08-01T00:05:25;18.10;99.90
16283;DHT22;8249;48.708;9.030;2022-08-01T00:07:53;18.00;99.90
16283;DHT22;8249;48.708;9.030;2022-08-01T00:10:20;18.00;99.90
16283;DHT22;8249;48.708;9.030;2022-08-01T00:12:47;18.00;99.90
16283;DHT22;8249;48.708;9.030;2022-08-01T00:15:16;17.90;99.90
16283;DHT22;8249;48.708;9.030;2022-08-01T00:17:44;17.90;99.90
16283;DHT22;8249;48.708;9.030;2022-08-01T00:20:12;17.90;99.90
16283;DHT22;8249;48.708;9.030;2022-08-01T00:22:39;17.80;99.90
16283;DHT22;8249;48.708;9.030;2022-08-01T00:25:08;17.90;99.90
16283;DHT22;8249;48.708;9.030;2022-08-01T00:27:35;17.80;99.90
16283;DHT22;8249;48.708;9.030;2022-08-01T00:30:02;17.80;99.90
16283;DHT22;8249;48.708;9.030;2022-08-01T00:32:30;17.70;99.90
16283;DHT22;8249;48.708;9.030;2022-08-01T00:34:57;17.80;99.90
16283;DHT22;8249;48.708;9.030;2022-08-01T00:37:24;17.70;99.90
16283;DHT22;8249;48.708;9.030;2022-08-01T00:39:51;17.70;99.90
16283;DHT22;8249;48.708;9.030;2022-08-01T00:42:19;17.70;99.90
16283;DHT22;8249;48.708;9.030;2022-08-01T00:44:46;17.60;99.90
16283;DHT22;8249;48.708;9.030;2022-08-01T00:47:13;17.60;99.90
16283;DHT22;8249;48.708;9.030;2022-08-01T00:49:40;17.60;99.90
16283;DHT22;8249;48.708;9.030;2022-08-01T00:52:08;17.60;99.90
16283;DHT22;8249;48.708;9.030;2022-08-01T00:54:35;17.60;99.90
16283;DHT22;8249;48.708;9.030;2022-08-01T00:57:03;17.50;99.90
16283;DHT22;8249;48.708;9.030;2022-08-01T00:59:32;17.50;99.90
16283;DHT22;8249;48.708;9.030;2022-08-01T01:01:59;17.60;99.90
16283;DHT22;8249;48.708;9.030;2022-08-01T01:04:26;17.60;99.90
16283;DHT22;8249;48.708;9.030;2022-08-01T01:07:00;17.50;99.90
16283;DHT22;8249;48.708;9.030;2022-08-01T01:09:35;17.50;99.90
16283;DHT22;8249;48.708;9.030;2022-08-01T01:12:15;17.50;99.90
16283;DHT22;8249;48.708;9.030;2022-08-01T01:14:51;17.40;99.90
16283;DHT22;8249;48.708;9.030;2022-08-01T01:17:32;17.40;99.90
16283;DHT22;8249;48.708;9.030;2022-08-01T01:20:00;17.40;99.90
16283;DHT22;8249;48.708;9.030;2022-08-01T01:22:46;17.30;99.90
16283;DHT22;8249;48.708;9.030;2022-08-01T01:25:40;17.30;99.90
16283;DHT22;8249;48.708;9.030;2022-08-01T01:28:12;17.30;99.90
16283;DHT22;8249;48.708;9.030;2022-08-01T01:30:45;17.30;99.90
16283;DHT22;8249;48.708;9.030;2022-08-01T01:33:14;17.20;99.90
16283;DHT22;8249;48.708;9.030;2022-08-01T01:35:46;17.20;99.90
16283;DHT22;8249;48.708;9.030;2022-08-01T01:38:18;17.20;99.90
16283;DHT22;8249;48.708;9.030;2022-08-01T01:40:47;17.20;99.90
16283;DHT22;8249;48.708;9.030;2022-08-01T01:43:15;17.20;99.90
16283;DHT22;8249;48.708;9.030;2022-08-01T01:45:46;17.10;99.90
16283;DHT22;8249;48.708;9.030;2022-08-01T01:48:16;17.10;99.90
16283;DHT22;8249;48.708;9.030;2022-08-01T01:50:46;17.00;99.90
16283;DHT22;8249;48.708;9.030;2022-08-01T01:53:15;17.00;99.90
16283;DHT22;8249;48.708;9.030;2022-08-01T01:55:45;17.00;99.90
16283;DHT22;8249;48.708;9.030;2022-08-01T01:58:13;16.90;99.90
16283;DHT22;8249;48.708;9.030;2022-08-01T02:00:41;16.90;99.90
16283;DHT22;8249;48.708;9.030;2022-08-01T02:03:12;16.90;99.90
16283;DHT22;8249;48.708;9.030;2022-08-01T02:05:41;16.90;99.90
16283;DHT22;8249;48.708;9.030;2022-08-01T02:08:09;16.90;99.90
16283;DHT22;8249;48.708;9.030;2022-08-01T02:10:39;16.80;99.90
16283;DHT22;8249;48.708;9.030;2022-08-01T02:13:06;16.90;99.90
16283;DHT22;8249;48.708;9.030;2022-08-01T02:15:36;16.80;99.90
16283;DHT22;8249;48.708;9.030;2022-08-01T02:18:06;16.80;99.90
16283;DHT22;8249;48.708;9.030;2022-08-01T02:20:36;16.80;99.90
16283;DHT22;8249;48.708;9.030;2022-08-01T02:23:07;16.90;99.90
16283;DHT22;8249;48.708;9.030;2022-08-01T02:25:39;16.80;99.90
16283;DHT22;8249;48.708;9.030;2022-08-01T02:28:11;16.80;99.90
16283;DHT22;8249;48.708;9.030;2022-08-01T02:30:45;16.80;99.90
16283;DHT22;8249;48.708;9.030;2022-08-01T02:33:17;16.80;99.90
16283;DHT22;8249;48.708;9.030;2022-08-01T02:35:48;16.80;99.90
16283;DHT22;8249;48.708;9.030;2022-08-01T02:38:18;16.80;99.90
16283;DHT22;8249;48.708;9.030;2022-08-01T02:40:47;16.80;99.90
16283;DHT22;8249;48.708;9.030;2022-08-01T02:43:20;16.80;99.90
16283;DHT22;8249;48.708;9.030;2022-08-01T02:45:53;16.80;99.90
16283;DHT22;8249;48.708;9.030;2022-08-01T02:48:21;16.70;99.90
16283;DHT22;8249;48.708;9.030;2022-08-01T02:50:55;16.80;99.90
16283;DHT22;8249;48.708;9.030;2022-08-01T02:53:24;16.70;99.90
16283;DHT22;8249;48.708;9.030;2022-08-01T02:55:52;16.70;99.90
16283;DHT22;8249;48.708;9.030;2022-08-01T02:58:20;16.70;99.90
16283;DHT22;8249;48.708;9.030;2022-08-01T03:00:50;16.70;99.90
16283;DHT22;8249;48.708;9.030;2022-08-01T03:03:18;16.70;99.90
16283;DHT22;8249;48.708;9.030;2022-08-01T03:05:45;16.70;99.90
16283;DHT22;8249;48.708;9.030;2022-08-01T03:08:16;16.60;99.90
16283;DHT22;8249;48.708;9.030;2022-08-01T03:10:45;16.60;99.90
16283;DHT22;8249;48.708;9.030;2022-08-01T03:13:14;16.50;99.90
16283;DHT22;8249;48.708;9.030;2022-08-01T03:15:43;16.50;99.90
16283;DHT22;8249;48.708;9.030;2022-08-01T03:18:11;16.50;99.90
16283;DHT22;8249;48.708;9.030;2022-08-01T03:20:38;16.50;99.90
16283;DHT22;8249;48.708;9.030;2022-08-01T03:23:08;16.40;99.90
16283;DHT22;8249;48.708;9.030;2022-08-01T03:25:40;16.40;99.90
16283;DHT22;8249;48.708;9.030;2022-08-01T03:28:10;16.40;99.90
16283;DHT22;8249;48.708;9.030;2022-08-01T03:30:39;16.30;99.90
16283;DHT22;8249;48.708;9.030;2022-08-01T03:33:07;16.30;99.90
16283;DHT22;8249;48.708;9.030;2022-08-01T03:35:37;16.30;99.90
16283;DHT22;8249;48.708;9.030;2022-08-01T03:38:07;16.30;99.90
16283;DHT22;8249;48.708;9.030;2022-08-01T03:40:39;16.30;99.90
16283;DHT22;8249;48.708;9.030;2022-08-01T03:43:12;16.30;99.90
16283;DHT22;8249;48.708;9.030;2022-08-01T03:45:44;16.40;99.90
16283;DHT22;8249;48.708;9.030;2022-08-01T03:48:15;16.30;99.90
16283;DHT22;8249;48.708;9.030;2022-08-01T03:50:45;16.40;99.90
16283;DHT22;8249;48.708;9.030;2022-08-01T03:53:14;16.30;99.90
16283;DHT22;8249;48.708;9.030;2022-08-01T03:55:43;16.30;99.90
16283;DHT22;8249;48.708;9.030;2022-08-01T03:58:11;16.30;99.90
16283;DHT22;8249;48.708;9.030;2022-08-01T04:00:39;16.30;99.90
16283;DHT22;8249;48.708;9.030;2022-08-01T04:03:08;16.20;99.90
16283;DHT22;8249;48.708;9.030;2022-08-01T04:05:35;16.20;99.90
16283;DHT22;8249;48.708;9.030;2022-08-01T04:08:02;16.30;99.90
16283;DHT22;8249;48.708;9.030;2022-08-01T04:10:29;16.30;99.90
16283;DHT22;8249;48.708;9.030;2022-08-01T04:12:58;16.30;99.90
16283;DHT22;8249;48.708;9.030;2022-08-01T04:15:24;16.30;99.90
16283;DHT22;8249;48.708;9.030;2022-08-01T04:17:51;16.30;99.90
16283;DHT22;8249;48.708;9.030;2022-08-01T04:20:19;16.30;99.90
16283;DHT22;8249;48.708;9.030;2022-08-01T04:22:46;16.30;99.90
16283;DHT22;8249;48.708;9.030;2022-08-01T04:25:17;16.30;99.90
16283;DHT22;8249;48.708;9.030;2022-08-01T04:27:49;16.40;99.90
16283;DHT22;8249;48.708;9.030;2022-08-01T04:30:22;16.40;99.90
16283;DHT22;8249;48.708;9.030;2022-08-01T04:32:51;16.40;99.90
16283;DHT22;8249;48.708;9.030;2022-08-01T04:35:20;16.40;99.90
16283;DHT22;8249;48.708;9.030;2022-08-01T04:37:48;16.40;99.90
16283;DHT22;8249;48.708;9.030;2022-08-01T04:40:17;16.40;99.90
16283;DHT22;8249;48.708;9.030;2022-08-01T04:42:44;16.50;99.90
16283;DHT22;8249;48.708;9.030;2022-08-01T04:45:14;16.50;99.90
16283;DHT22;8249;48.708;9.030;2022-08-01T04:47:43;16.60;99.90
16283;DHT22;8249;48.708;9.030;2022-08-01T04:50:11;16.60;99.90
16283;DHT22;8249;48.708;9.030;2022-08-01T04:52:38;16.60;99.90
16283;DHT22;8249;48.708;9.030;2022-08-01T04:55:08;16.70;99.90
16283;DHT22;8249;48.708;9.030;2022-08-01T04:57:37;16.60;99.90
16283;DHT22;8249;48.708;9.030;2022-08-01T05:00:05;16.70;99.90
16283;DHT22;8249;48.708;9.030;2022-08-01T05:02:32;16.70;99.90
16283;DHT22;8249;48.708;9.030;2022-08-01T05:05:01;16.70;99.90
16283;DHT22;8249;48.708;9.030;2022-08-01T05:07:27;16.80;99.90
16283;DHT22;8249;48.708;9.030;2022-08-01T05:09:55;16.90;99.90
16283;DHT22;8249;48.708;9.030;2022-08-01T05:12:22;16.90;99.90
16283;DHT22;8249;48.708;9.030;2022-08-01T05:14:48;17.10;99.90
16283;DHT22;8249;48.708;9.030;2022-08-01T05:17:16;17.20;99.90
16283;DHT22;8249;48.708;9.030;2022-08-01T05:19:43;17.30;99.90
16283;DHT22;8249;48.708;9.030;2022-08-01T05:22:12;17.40;99.90
16283;DHT22;8249;48.708;9.030;2022-08-01T05:24:39;17.50;99.90
16283;DHT22;8249;48.708;9.030;2022-08-01T05:27:07;17.60;99.90
16283;DHT22;8249;48.708;9.030;2022-08-01T05:29:35;17.70;99.90
16283;DHT22;8249;48.708;9.030;2022-08-01T05:32:02;17.80;99.90
16283;DHT22;8249;48.708;9.030;2022-08-01T05:34:29;18.00;99.90
16283;DHT22;8249;48.708;9.030;2022-08-01T05:36:56;18.10;99.90
16283;DHT22;8249;48.708;9.030;2022-08-01T05:39:24;18.20;99.90
16283;DHT22;8249;48.708;9.030;2022-08-01T05:41:51;18.30;99.90
16283;DHT22;8249;48.708;9.030;2022-08-01T05:44:18;18.40;99.90
16283;DHT22;8249;48.708;9.030;2022-08-01T05:46:45;18.50;99.90
16283;DHT22;8249;48.708;9.030;2022-08-01T05:49:12;18.70;99.90
16283;DHT22;8249;48.708;9.030;2022-08-01T05:51:39;18.80;99.90
16283;DHT22;8249;48.708;9.030;2022-08-01T05:54:06;19.00;99.90
16283;DHT22;8249;48.708;9.030;2022-08-01T05:56:34;19.20;99.90
16283;DHT22;8249;48.708;9.030;2022-08-01T05:59:01;19.30;99.90
16283;DHT22;8249;48.708;9.030;2022-08-01T06:01:28;19.40;99.90
16283;DHT22;8249;48.708;9.030;2022-08-01T06:03:56;19.60;99.90
16283;DHT22;8249;48.708;9.030;2022-08-01T06:06:22;19.80;99.90
16283;DHT22;8249;48.708;9.030;2022-08-01T06:08:50;20.00;99.90
16283;DHT22;8249;48.708;9.030;2022-08-01T06:11:17;20.30;99.90
16283;DHT22;8249;48.708;9.030;2022-08-01T06:13:45;20.50;99.90
16283;DHT22;8249;48.708;9.030;2022-08-01T06:16:12;20.60;99.90
16283;DHT22;8249;48.708;9.030;2022-08-01T06:18:39;20.80;99.90
16283;DHT22;8249;48.708;9.030;2022-08-01T06:21:06;21.00;99.90
16283;DHT22;8249;48.708;9.030;2022-08-01T06:23:33;21.00;99.90
16283;DHT22;8249;48.708;9.030;2022-08-01T06:26:00;21.10;99.90
16283;DHT22;8249;48.708;9.030;2022-08-01T06:28:28;21.20;99.90
16283;DHT22;8249;48.708;9.030;2022-08-01T06:30:56;21.20;99.90
16283;DHT22;8249;48.708;9.030;2022-08-01T06:33:25;21.30;99.90
16283;DHT22;8249;48.708;9.030;2022-08-01T06:35:51;21.40;99.90
16283;DHT22;8249;48.708;9.030;2022-08-01T06:38:19;21.50;99.90
16283;DHT22;8249;48.708;9.030;2022-08-01T06:40:46;21.50;99.90
16283;DHT22;8249;48.708;9.030;2022-08-01T06:43:13;21.50;99.90
16283;DHT22;8249;48.708;9.030;2022-08-01T06:45:40;21.70;99.90
16283;DHT22;8249;48.708;9.030;2022-08-01T06:48:09;21.80;99.90
16283;DHT22;8249;48.708;9.030;2022-08-01T06:50:36;21.90;99.90
16283;DHT22;8249;48.708;9.030;2022-08-01T06:53:04;22.00;99.90
16283;DHT22;8249;48.708;9.030;2022-08-01T06:55:31;22.00;99.90
16283;DHT22;8249;48.708;9.030;2022-08-01T06:57:58;22.00;99.90
16283;DHT22;8249;48.708;9.030;2022-08-01T07:00:25;22.10;99.90
16283;DHT22;8249;48.708;9.030;2022-08-01T07:02:53;22.10;99.90
16283;DHT22;8249;48.708;9.030;2022-08-01T07:05:23;22.20;99.90
16283;DHT22;8249;48.708;9.030;2022-08-01T07:07:50;22.10;99.90
16283;DHT22;8249;48.708;9.030;2022-08-01T07:10:17;22.20;99.90
16283;DHT22;8249;48.708;9.030;2022-08-01T07:12:44;22.30;99.90
16283;DHT22;8249;48.708;9.030;2022-08-01T07:15:11;22.50;99.90
16283;DHT22;8249;48.708;9.030;2022-08-01T07:17:38;22.60;99.90
16283;DHT22;8249;48.708;9.030;2022-08-01T07:20:08;22.70;99.90
16283;DHT22;8249;48.708;9.030;2022-08-01T07:22:36;22.70;99.90
16283;DHT22;8249;48.708;9.030;2022-08-01T07:25:04;22.80;99.90
16283;DHT22;8249;48.708;9.030;2022-08-01T07:27:32;22.80;99.90
16283;DHT22;8249;48.708;9.030;2022-08-01T07:29:59;22.80;99.90
16283;DHT22;8249;48.708;9.030;2022-08-01T07:32:27;22.90;99.90
16283;DHT22;8249;48.708;9.030;2022-08-01T07:34:55;23.00;99.90
16283;DHT22;8249;48.708;9.030;2022-08-01T07:37:22;23.10;99.90
16283;DHT22;8249;48.708;9.030;2022-08-01T07:39:50;23.30;99.90
16283;DHT22;8249;48.708;9.030;2022-08-01T07:42:17;23.30;99.90
16283;DHT22;8249;48.708;9.030;2022-08-01T07:44:44;23.50;99.90
16283;DHT22;8249;48.708;9.030;2022-08-01T07:47:11;23.30;99.90
16283;DHT22;8249;48.708;9.030;2022-08-01T07:49:38;23.20;99.90
16283;DHT22;8249;48.708;9.030;2022-08-01T07:52:05;23.40;99.90
16283;DHT22;8249;48.708;9.030;2022-08-01T07:54:32;23.50;99.90
16283;DHT22;8249;48.708;9.030;2022-08-01T07:57:02;23.50;99.90
16283;DHT22;8249;48.708;9.030;2022-08-01T07:59:29;23.50;99.90
16283;DHT22;8249;48.708;9.030;2022-08-01T08:01:56;23.40;99.90
16283;DHT22;8249;48.708;9.030;2022-08-01T08:04:23;23.50;99.90
16283;DHT22;8249;48.708;9.030;2022-08-01T08:06:50;23.80;99.90
16283;DHT22;8249;48.708;9.030;2022-08-01T08:09:19;24.10;99.90
16283;DHT22;8249;48.708;9.030;2022-08-01T08:11:46;24.30;99.90
16283;DHT22;8249;48.708;9.030;2022-08-01T08:14:14;24.20;99.90
16283;DHT22;8249;48.708;9.030;2022-08-01T08:16:42;24.10;99.90
16283;DHT22;8249;48.708;9.030;2022-08-01T08:19:09;24.30;99.90
16283;DHT22;8249;48.708;9.030;2022-08-01T08:21:36;24.20;99.90
16283;DHT22;8249;48.708;9.030;2022-08-01T08:24:03;24.50;99.90
16283;DHT22;8249;48.708;9.030;2022-08-01T08:26:50;24.70;99.90
16283;DHT22;8249;48.708;9.030;2022-08-01T08:29:20;24.50;99.90
16283;DHT22;8249;48.708;9.030;2022-08-01T08:31:47;24.50;99.90
16283;DHT22;8249;48.708;9.030;2022-08-01T08:34:14;24.50;99.90
16283;DHT22;8249;48.708;9.030;2022-08-01T08:36:41;24.60;99.90
16283;DHT22;8249;48.708;9.030;2022-08-01T08:39:08;24.80;99.90
16283;DHT22;8249;48.708;9.030;2022-08-01T08:41:35;24.70;99.90
16283;DHT22;8249;48.708;9.030;2022-08-01T08:44:03;24.80;99.90
16283;DHT22;8249;48.708;9.030;2022-08-01T08:46:33;25.00;99.90
16283;DHT22;8249;48.708;9.030;2022-08-01T08:49:01;25.40;99.90
16283;DHT22;8249;48.708;9.030;2022-08-01T08:51:30;25.70;99.90
16283;DHT22;8249;48.708;9.030;2022-08-01T08:53:58;26.20;99.90
16283;DHT22;8249;48.708;9.030;2022-08-01T08:56:25;26.30;99.90
16283;DHT22;8249;48.708;9.030;2022-08-01T08:58:55;26.20;99.90
16283;DHT22;8249;48.708;9.030;2022-08-01T09:01:23;26.10;99.90
16283;DHT22;8249;48.708;9.030;2022-08-01T09:03:51;25.70;99.90
16283;DHT22;8249;48.708;9.030;2022-08-01T09:06:19;25.50;99.90
16283;DHT22;8249;48.708;9.030;2022-08-01T09:08:46;25.20;99.90
16283;DHT22;8249;48.708;9.030;2022-08-01T09:11:13;25.20;99.90
16283;DHT22;8249;48.708;9.030;2022-08-01T09:13:40;25.10;99.90
16283;DHT22;8249;48.708;9.030;2022-08-01T09:16:07;25.20;99.90
16283;DHT22;8249;48.708;9.030;2022-08-01T09:18:38;25.60;99.90
16283;DHT22;8249;48.708;9.030;2022-08-01T09:21:25;25.80;99.90
16283;DHT22;8249;48.708;9.030;2022-08-01T09:23:54;25.70;99.90
16283;DHT22;8249;48.708;9.030;2022-08-01T09:26:30;26.00;99.90
16283;DHT22;8249;48.708;9.030;2022-08-01T09:28:58;26.10;99.90
16283;DHT22;8249;48.708;9.030;2022-08-01T09:31:27;26.20;99.90
16283;DHT22;8249;48.708;9.030;2022-08-01T09:33:56;26.10;99.90
16283;DHT22;8249;48.708;9.030;2022-08-01T09:36:26;26.00;99.90
16283;DHT22;8249;48.708;9.030;2022-08-01T09:38:54;25.90;99.90
16283;DHT22;8249;48.708;9.030;2022-08-01T09:41:29;25.80;99.90
16283;DHT22;8249;48.708;9.030;2022-08-01T09:43:58;25.90;99.90
16283;DHT22;8249;48.708;9.030;2022-08-01T09:46:25;25.90;99.90
16283;DHT22;8249;48.708;9.030;2022-08-01T09:48:56;25.90;99.90
16283;DHT22;8249;48.708;9.030;2022-08-01T09:51:30;25.70;99.90
16283;DHT22;8249;48.708;9.030;2022-08-01T09:53:57;25.60;99.90
16283;DHT22;8249;48.708;9.030;2022-08-01T09:56:25;25.60;99.90
16283;DHT22;8249;48.708;9.030;2022-08-01T09:58:56;25.60;99.90
16283;DHT22;8249;48.708;9.030;2022-08-01T10:01:23;26.00;99.90
16283;DHT22;8249;48.708;9.030;2022-08-01T10:04:08;27.20;99.90
16283;DHT22;8249;48.708;9.030;2022-08-01T10:06:37;28.30;99.90
16283;DHT22;8249;48.708;9.030;2022-08-01T10:09:04;28.10;99.90
16283;DHT22;8249;48.708;9.030;2022-08-01T10:11:31;28.20;99.90
16283;DHT22;8249;48.708;9.030;2022-08-01T10:14:01;28.40;99.90
16283;DHT22;8249;48.708;9.030;2022-08-01T10:16:30;28.00;99.90
16283;DHT22;8249;48.708;9.030;2022-08-01T10:18:57;27.30;99.90
16283;DHT22;8249;48.708;9.030;2022-08-01T10:21:26;27.30;99.90
16283;DHT22;8249;48.708;9.030;2022-08-01T10:23:56;28.10;99.90
16283;DHT22;8249;48.708;9.030;2022-08-01T10:26:25;29.50;99.90
16283;DHT22;8249;48.708;9.030;2022-08-01T10:28:54;30.50;99.90
16283;DHT22;8249;48.708;9.030;2022-08-01T10:31:22;31.30;99.50
16283;DHT22;8249;48.708;9.030;2022-08-01T10:33:50;31.60;96.90
16283;DHT22;8249;48.708;9.030;2022-08-01T10:36:19;30.90;96.90
16283;DHT22;8249;48.708;9.030;2022-08-01T10:38:47;31.30;96.10
16283;DHT22;8249;48.708;9.030;2022-08-01T10:41:15;31.50;95.40
16283;DHT22;8249;48.708;9.030;2022-08-01T10:43:45;30.30;95.70
16283;DHT22;8249;48.708;9.030;2022-08-01T10:46:12;30.10;96.90
16283;DHT22;8249;48.708;9.030;2022-08-01T10:48:45;30.70;96.20
16283;DHT22;8249;48.708;9.030;2022-08-01T10:51:15;31.50;95.20
16283;DHT22;8249;48.708;9.030;2022-08-01T10:53:46;31.00;95.10
16283;DHT22;8249;48.708;9.030;2022-08-01T10:56:15;30.60;95.10
16283;DHT22;8249;48.708;9.030;2022-08-01T10:58:44;30.30;95.70
16283;DHT22;8249;48.708;9.030;2022-08-01T11:01:21;30.40;96.00
16283;DHT22;8249;48.708;9.030;2022-08-01T11:04:10;29.90;95.50
16283;DHT22;8249;48.708;9.030;2022-08-01T11:09:29;28.90;96.30
16283;DHT22;8249;48.708;9.030;2022-08-01T11:12:04;28.70;97.10
16283;DHT22;8249;48.708;9.030;2022-08-01T11:17:33;28.20;97.30
16283;DHT22;8249;48.708;9.030;2022-08-01T11:20:05;27.90;97.80
16283;DHT22;8249;48.708;9.030;2022-08-01T11:26:22;27.10;98.30
16283;DHT22;8249;48.708;9.030;2022-08-01T11:29:14;26.70;99.10
16283;DHT22;8249;48.708;9.030;2022-08-01T11:31:41;26.50;99.40
16283;DHT22;8249;48.708;9.030;2022-08-01T11:34:08;26.80;99.90
16283;DHT22;8249;48.708;9.030;2022-08-01T11:36:35;27.70;98.30
16283;DHT22;8249;48.708;9.030;2022-08-01T11:39:15;27.80;98.20
16283;DHT22;8249;48.708;9.030;2022-08-01T11:41:44;27.50;98.20
16283;DHT22;8249;48.708;9.030;2022-08-01T11:44:15;27.30;98.30
16283;DHT22;8249;48.708;9.030;2022-08-01T11:46:49;27.00;99.30
16283;DHT22;8249;48.708;9.030;2022-08-01T11:52:27;26.60;99.10
16283;DHT22;8249;48.708;9.030;2022-08-01T11:54:56;26.30;99.60
16283;DHT22;8249;48.708;9.030;2022-08-01T11:57:25;26.20;99.30
16283;DHT22;8249;48.708;9.030;2022-08-01T11:59:55;26.10;99.40
16283;DHT22;8249;48.708;9.030;2022-08-01T12:02:25;26.10;99.90
16283;DHT22;8249;48.708;9.030;2022-08-01T12:04:54;26.10;99.90
16283;DHT22;8249;48.708;9.030;2022-08-01T12:07:23;26.10;99.90
16283;DHT22;8249;48.708;9.030;2022-08-01T12:09:58;26.10;99.90
16283;DHT22;8249;48.708;9.030;2022-08-01T12:12:27;26.20;99.90
16283;DHT22;8249;48.708;9.030;2022-08-01T12:14:58;26.30;99.40
16283;DHT22;8249;48.708;9.030;2022-08-01T12:17:32;27.80;98.00
16283;DHT22;8249;48.708;9.030;2022-08-01T12:19:59;29.60;96.80
16283;DHT22;8249;48.708;9.030;2022-08-01T12:22:26;30.90;95.50
16283;DHT22;8249;48.708;9.030;2022-08-01T12:24:53;31.30;93.70
16283;DHT22;8249;48.708;9.030;2022-08-01T12:27:26;30.60;94.00
16283;DHT22;8249;48.708;9.030;2022-08-01T12:29:53;30.20;94.00
16283;DHT22;8249;48.708;9.030;2022-08-01T12:32:24;29.40;94.90
16283;DHT22;8249;48.708;9.030;2022-08-01T12:34:52;28.80;95.50
16283;DHT22;8249;48.708;9.030;2022-08-01T12:37:19;28.20;95.40
16283;DHT22;8249;48.708;9.030;2022-08-01T12:39:46;27.80;95.80
16283;DHT22;8249;48.708;9.030;2022-08-01T12:42:14;27.80;96.60
16283;DHT22;8249;48.708;9.030;2022-08-01T12:44:44;28.10;96.50
16283;DHT22;8249;48.708;9.030;2022-08-01T12:47:12;28.80;95.40
16283;DHT22;8249;48.708;9.030;2022-08-01T12:49:43;29.50;95.30
16283;DHT22;8249;48.708;9.030;2022-08-01T12:52:11;30.80;96.00
16283;DHT22;8249;48.708;9.030;2022-08-01T12:55:00;31.30;92.20
16283;DHT22;8249;48.708;9.030;2022-08-01T12:57:27;32.30;91.90
16283;DHT22;8249;48.708;9.030;2022-08-01T13:00:06;32.80;90.50
16283;DHT22;8249;48.708;9.030;2022-08-01T13:02:33;33.10;89.10
16283;DHT22;8249;48.708;9.030;2022-08-01T13:05:02;33.00;90.40
16283;DHT22;8249;48.708;9.030;2022-08-01T13:07:37;31.50;90.90
16283;DHT22;8249;48.708;9.030;2022-08-01T13:10:06;30.70;91.20
16283;DHT22;8249;48.708;9.030;2022-08-01T13:12:34;29.80;92.00
16283;DHT22;8249;48.708;9.030;2022-08-01T13:15:19;29.20;93.00
16283;DHT22;8249;48.708;9.030;2022-08-01T13:17:47;29.00;93.40
16283;DHT22;8249;48.708;9.030;2022-08-01T13:20:31;30.00;92.70
16283;DHT22;8249;48.708;9.030;2022-08-01T13:23:12;30.20;92.30
16283;DHT22;8249;48.708;9.030;2022-08-01T13:25:50;31.20;91.90
16283;DHT22;8249;48.708;9.030;2022-08-01T13:28:19;31.90;90.90
16283;DHT22;8249;48.708;9.030;2022-08-01T13:30:57;31.60;90.60
16283;DHT22;8249;48.708;9.030;2022-08-01T13:33:26;32.00;90.20
16283;DHT22;8249;48.708;9.030;2022-08-01T13:35:56;32.50;90.10
16283;DHT22;8249;48.708;9.030;2022-08-01T13:38:23;33.20;89.30
16283;DHT22;8249;48.708;9.030;2022-08-01T13:41:04;33.60;87.50
16283;DHT22;8249;48.708;9.030;2022-08-01T13:43:31;33.80;87.10
16283;DHT22;8249;48.708;9.030;2022-08-01T13:45:58;34.00;84.60
16283;DHT22;8249;48.708;9.030;2022-08-01T13:48:25;33.30;86.20
16283;DHT22;8249;48.708;9.030;2022-08-01T13:50:52;32.50;86.20
16283;DHT22;8249;48.708;9.030;2022-08-01T13:53:21;31.70;88.50
16283;DHT22;8249;48.708;9.030;2022-08-01T13:55:48;30.90;90.30
16283;DHT22;8249;48.708;9.030;2022-08-01T13:58:15;30.10;91.20
16283;DHT22;8249;48.708;9.030;2022-08-01T14:00:42;29.60;91.70
16283;DHT22;8249;48.708;9.030;2022-08-01T14:03:09;29.50;91.80
16283;DHT22;8249;48.708;9.030;2022-08-01T14:05:36;29.70;92.10
16283;DHT22;8249;48.708;9.030;2022-08-01T14:08:04;29.90;91.30
16283;DHT22;8249;48.708;9.030;2022-08-01T14:10:32;29.30;91.40
16283;DHT22;8249;48.708;9.030;2022-08-01T14:12:59;29.00;91.80
16283;DHT22;8249;48.708;9.030;2022-08-01T14:15:26;28.60;92.40
16283;DHT22;8249;48.708;9.030;2022-08-01T14:17:53;28.70;92.50
16283;DHT22;8249;48.708;9.030;2022-08-01T14:20:20;29.20;92.10
16283;DHT22;8249;48.708;9.030;2022-08-01T14:22:47;29.80;91.70
16283;DHT22;8249;48.708;9.030;2022-08-01T14:25:14;30.20;91.50
16283;DHT22;8249;48.708;9.030;2022-08-01T14:27:45;31.30;90.70
16283;DHT22;8249;48.708;9.030;2022-08-01T14:30:12;31.90;90.60
16283;DHT22;8249;48.708;9.030;2022-08-01T14:32:39;32.00;89.80
16283;DHT22;8249;48.708;9.030;2022-08-01T14:35:07;31.40;90.00
16283;DHT22;8249;48.708;9.030;2022-08-01T14:37:34;31.00;90.90
16283;DHT22;8249;48.708;9.030;2022-08-01T14:40:03;31.20;90.90
16283;DHT22;8249;48.708;9.030;2022-08-01T14:42:35;31.00;90.60
16283;DHT22;8249;48.708;9.030;2022-08-01T14:45:06;31.20;91.00
16283;DHT22;8249;48.708;9.030;2022-08-01T14:47:35;31.70;90.10
16283;DHT22;8249;48.708;9.030;2022-08-01T14:50:03;32.10;90.10
16283;DHT22;8249;48.708;9.030;2022-08-01T14:52:31;32.60;88.60
16283;DHT22;8249;48.708;9.030;2022-08-01T14:54:58;32.40;88.10
16283;DHT22;8249;48.708;9.030;2022-08-01T14:57:26;32.00;88.20
16283;DHT22;8249;48.708;9.030;2022-08-01T14:59:53;32.10;88.90
16283;DHT22;8249;48.708;9.030;2022-08-01T15:02:22;31.50;88.70
16283;DHT22;8249;48.708;9.030;2022-08-01T15:04:49;30.60;89.70
16283;DHT22;8249;48.708;9.030;2022-08-01T15:07:17;29.40;90.70
16283;DHT22;8249;48.708;9.030;2022-08-01T15:09:44;29.30;91.60
16283;DHT22;8249;48.708;9.030;2022-08-01T15:12:12;29.20;91.80
16283;DHT22;8249;48.708;9.030;2022-08-01T15:14:39;29.00;91.90
16283;DHT22;8249;48.708;9.030;2022-08-01T15:17:16;29.30;91.80
16283;DHT22;8249;48.708;9.030;2022-08-01T15:19:44;29.40;91.70
16283;DHT22;8249;48.708;9.030;2022-08-01T15:22:12;29.10;92.10
16283;DHT22;8249;48.708;9.030;2022-08-01T15:24:39;29.00;91.80
16283;DHT22;8249;48.708;9.030;2022-08-01T15:27:07;28.90;92.00
16283;DHT22;8249;48.708;9.030;2022-08-01T15:29:35;28.80;92.20
16283;DHT22;8249;48.708;9.030;2022-08-01T15:32:02;28.70;92.10
16283;DHT22;8249;48.708;9.030;2022-08-01T15:34:30;28.40;92.10
16283;DHT22;8249;48.708;9.030;2022-08-01T15:36:58;28.20;92.90
16283;DHT22;8249;48.708;9.030;2022-08-01T15:39:25;28.30;93.30
16283;DHT22;8249;48.708;9.030;2022-08-01T15:41:52;28.40;92.70
16283;DHT22;8249;48.708;9.030;2022-08-01T15:44:19;28.50;93.30
16283;DHT22;8249;48.708;9.030;2022-08-01T15:46:47;28.30;92.50
16283;DHT22;8249;48.708;9.030;2022-08-01T15:49:14;28.00;93.10
16283;DHT22;8249;48.708;9.030;2022-08-01T15:51:41;28.10;93.00
16283;DHT22;8249;48.708;9.030;2022-08-01T15:54:10;27.90;93.00
16283;DHT22;8249;48.708;9.030;2022-08-01T15:56:37;27.70;93.10
16283;DHT22;8249;48.708;9.030;2022-08-01T15:59:05;27.50;93.10
16283;DHT22;8249;48.708;9.030;2022-08-01T16:01:32;27.40;93.20
16283;DHT22;8249;48.708;9.030;2022-08-01T16:04:00;27.30;93.30
16283;DHT22;8249;48.708;9.030;2022-08-01T16:06:27;27.20;93.80
16283;DHT22;8249;48.708;9.030;2022-08-01T16:08:54;27.20;93.80